createdAt,value
2023-05-11T00:03:45.432Z,100911.03
2023-05-11T00:08:47.734Z,100908.97
2023-05-11T00:13:50.000Z,100887.75
2023-05-11T00:18:52.317Z,100877.16
2023-05-11T00:23:54.939Z,100899.22
2023-05-11T00:28:57.204Z,100892.56
2023-05-11T00:33:59.525Z,100888.81
2023-05-11T00:39:01.893Z,100878.81
2023-05-11T00:44:04.362Z,100889.00
2023-05-11T00:49:07.456Z,100873.84
2023-05-11T00:54:15.646Z,100892.13
2023-05-11T00:59:18.026Z,100876.09
2023-05-11T01:04:21.155Z,100841.81
2023-05-11T01:09:41.929Z,100883.00
2023-05-11T01:15:01.341Z,100880.69
2023-05-11T01:20:07.815Z,100886.72
2023-05-11T01:25:13.126Z,100888.41
2023-05-11T01:30:18.235Z,100882.56
2023-05-11T01:35:23.497Z,100894.81
2023-05-11T01:40:29.909Z,100860.53
2023-05-11T01:45:34.804Z,100854.47
2023-05-11T01:50:38.135Z,100875.09
2023-05-11T01:55:42.347Z,100861.56
2023-05-11T02:00:45.923Z,100867.59
2023-05-11T02:05:49.993Z,100877.16
2023-05-11T02:10:55.140Z,100841.19
2023-05-11T02:15:59.141Z,100859.88
2023-05-11T02:21:03.481Z,100876.31
2023-05-11T02:26:07.131Z,100855.13
2023-05-11T02:31:18.091Z,100858.44
2023-05-11T02:36:23.314Z,100863.03
2023-05-11T02:41:30.056Z,100863.63
2023-05-11T02:46:36.084Z,100860.72
2023-05-11T02:51:41.677Z,100855.13
2023-05-11T02:56:45.360Z,100848.22
2023-05-11T03:01:48.544Z,100866.94
2023-05-11T03:06:51.160Z,100860.06
2023-05-11T03:11:53.502Z,100864.03
2023-05-11T03:16:57.740Z,100872.75
2023-05-11T03:22:01.424Z,100869.81
2023-05-11T03:27:06.373Z,100890.22
2023-05-11T03:32:09.974Z,100901.47
2023-05-11T03:37:14.198Z,100888.97
2023-05-11T03:42:18.161Z,100889.97
2023-05-11T03:47:21.570Z,100909.16
2023-05-11T03:52:24.295Z,100905.41
2023-05-11T03:57:26.933Z,100907.91
2023-05-11T04:02:29.232Z,100869.81
2023-05-11T04:07:33.330Z,100887.75
2023-05-11T04:12:35.566Z,100897.91
2023-05-11T04:17:37.823Z,100885.66
2023-05-11T04:22:40.040Z,100903.97
2023-05-11T04:27:42.306Z,100891.72
2023-05-11T04:32:44.547Z,100909.19
2023-05-11T04:37:46.849Z,100874.44
2023-05-11T04:42:49.101Z,100906.88
2023-05-11T04:47:52.084Z,100896.72
2023-05-11T04:52:54.299Z,100907.53
2023-05-11T04:57:56.615Z,100915.84
2023-05-11T05:02:58.874Z,100885.47
2023-05-11T05:08:01.222Z,100904.19
2023-05-11T05:13:03.450Z,100908.56
2023-05-11T05:18:05.742Z,100911.91
2023-05-11T05:23:07.962Z,100906.47
2023-05-11T05:28:10.113Z,100906.91
2023-05-11T05:33:12.636Z,100911.63
2023-05-11T05:38:14.833Z,100926.59
2023-05-11T05:43:17.049Z,100915.34
2023-05-11T05:48:19.244Z,100919.03
2023-05-11T05:53:21.485Z,100916.94
2023-05-11T05:58:23.733Z,100912.28
2023-05-11T06:03:28.432Z,100877.78
2023-05-11T06:08:31.510Z,100885.41
2023-05-11T06:13:33.660Z,100908.25
2023-05-11T06:18:35.984Z,100888.88
2023-05-11T06:23:38.227Z,100893.34
2023-05-11T06:28:40.512Z,100920.56
2023-05-11T06:33:43.455Z,100894.31
2023-05-11T06:38:45.704Z,100916.84
2023-05-11T06:43:47.927Z,100931.75
2023-05-11T06:48:50.766Z,100910.78
2023-05-11T06:53:53.050Z,100922.38
2023-05-11T06:58:55.234Z,100904.91
2023-05-11T07:03:57.500Z,100920.41
2023-05-11T07:08:59.717Z,100919.41
2023-05-11T07:14:01.930Z,100914.13
2023-05-11T07:19:05.537Z,100924.91
2023-05-11T07:24:07.998Z,100920.47
2023-05-11T07:29:10.256Z,100898.88
2023-05-11T07:34:12.485Z,100911.97
2023-05-11T07:39:17.364Z,100923.22
2023-05-11T07:44:19.677Z,100926.44
2023-05-11T07:49:28.181Z,100939.28
2023-05-11T07:54:33.425Z,100923.72
2023-05-11T07:59:35.734Z,100927.28
2023-05-11T08:04:38.392Z,100939.56
2023-05-11T08:09:40.650Z,100923.78
2023-05-11T08:14:43.668Z,100926.44
2023-05-11T08:19:46.121Z,100929.34
2023-05-11T08:24:50.175Z,100940.31
2023-05-11T08:29:52.379Z,100960.19
2023-05-11T08:34:54.794Z,100935.19
2023-05-11T08:39:57.282Z,100932.91
2023-05-11T08:45:00.658Z,100940.59
2023-05-11T08:50:03.129Z,100942.75
2023-05-11T08:55:05.738Z,100946.22
2023-05-11T09:00:09.016Z,100917.88
2023-05-11T09:05:11.872Z,100926.16
2023-05-11T09:10:14.190Z,100920.56
2023-05-11T09:15:16.384Z,100925.03
2023-05-11T09:20:28.222Z,100918.63
2023-05-11T09:25:35.362Z,100893.56
2023-05-11T09:30:37.983Z,100934.66
2023-05-11T09:35:40.707Z,100934.44
2023-05-11T09:40:54.122Z,100910.75
2023-05-11T09:45:58.429Z,100921.25
2023-05-11T09:51:06.278Z,100917.28
2023-05-11T09:56:08.685Z,100895.06
2023-05-11T10:01:11.311Z,100886.16
2023-05-11T10:06:13.675Z,100882.47
2023-05-11T10:11:16.169Z,100911.63
2023-05-11T10:16:21.305Z,100889.88
2023-05-11T10:21:24.026Z,100870.00
2023-05-11T10:26:27.109Z,100867.78
2023-05-11T10:31:30.341Z,100893.88
2023-05-11T10:36:33.613Z,100877.31
2023-05-11T10:41:45.541Z,100886.63
2023-05-11T10:47:28.329Z,100874.88
2023-05-11T10:52:47.730Z,100885.09
2023-05-11T10:58:06.824Z,100888.94
2023-05-11T11:03:12.952Z,100889.16
2023-05-11T11:08:15.243Z,100847.66
2023-05-11T11:13:20.486Z,100854.81
2023-05-11T11:18:30.907Z,100871.25
2023-05-11T11:23:49.530Z,100878.63
2023-05-11T11:28:54.619Z,100882.78
2023-05-11T11:33:59.461Z,100878.84
2023-05-11T11:39:04.291Z,100879.47
2023-05-11T11:44:22.255Z,100863.41
2023-05-11T11:49:28.063Z,100866.75
2023-05-11T11:54:48.238Z,100881.47
2023-05-11T11:59:50.546Z,100875.25
2023-05-11T12:05:19.198Z,100874.72
2023-05-11T12:10:23.534Z,100876.56
2023-05-11T12:15:35.178Z,100874.56
2023-05-11T12:20:37.525Z,100862.94
2023-05-11T12:25:39.851Z,100870.00
2023-05-11T12:30:42.360Z,100848.16
2023-05-11T12:35:44.829Z,100852.94
2023-05-11T12:40:51.699Z,100819.44
2023-05-11T12:45:54.181Z,100861.13
2023-05-11T12:50:57.287Z,100850.34
2023-05-11T12:56:00.426Z,100857.16
2023-05-11T13:01:02.901Z,100837.66
2023-05-11T13:06:09.824Z,100852.16
2023-05-11T13:11:23.013Z,100838.13
2023-05-11T13:16:33.025Z,100836.16
2023-05-11T13:21:35.331Z,100806.47
2023-05-11T13:26:37.871Z,100828.94
2023-05-11T13:31:47.687Z,100825.00
2023-05-11T13:36:50.355Z,100841.16
2023-05-11T13:41:55.044Z,100828.25
2023-05-11T13:46:58.202Z,100835.78
2023-05-11T13:52:00.982Z,100826.00
2023-05-11T13:57:03.439Z,100844.38
2023-05-11T14:02:06.011Z,100835.63
2023-05-11T14:07:08.389Z,100830.66
2023-05-11T14:12:11.055Z,100838.50
2023-05-11T14:17:16.172Z,100826.50
2023-05-11T14:22:18.408Z,100812.72
2023-05-11T14:27:20.595Z,100828.47
2023-05-11T14:32:22.846Z,100810.19
2023-05-11T14:37:25.051Z,100810.00
2023-05-11T14:42:27.445Z,100794.25
2023-05-11T14:47:29.880Z,100827.72
2023-05-11T14:52:32.257Z,100808.03
2023-05-11T14:57:34.548Z,100823.38
2023-05-11T15:02:36.925Z,100828.00
2023-05-11T15:07:39.773Z,100830.47
2023-05-11T15:12:41.984Z,100831.50
2023-05-11T15:17:44.344Z,100792.34
2023-05-11T15:22:48.063Z,100851.53
2023-05-11T15:27:50.396Z,100821.41
2023-05-11T15:32:52.691Z,100835.78
2023-05-11T15:37:54.962Z,100825.19
2023-05-11T15:42:58.731Z,100825.38
2023-05-11T15:48:01.785Z,100832.44
2023-05-11T15:53:04.213Z,100840.31
2023-05-11T15:58:09.736Z,100806.16
2023-05-11T16:03:12.235Z,100828.31
2023-05-11T16:08:15.030Z,100811.06
2023-05-11T16:13:17.402Z,100794.22
2023-05-11T16:18:20.349Z,100826.84
2023-05-11T16:23:22.792Z,100827.03
2023-05-11T16:28:25.692Z,100795.91
2023-05-11T16:33:27.924Z,100839.53
2023-05-11T16:38:30.102Z,100840.38
2023-05-11T16:43:33.802Z,100825.22
2023-05-11T16:48:36.415Z,100826.53
2023-05-11T16:53:38.706Z,100849.78
2023-05-11T16:58:41.591Z,100801.88
2023-05-11T17:03:44.179Z,100844.06
2023-05-11T17:08:46.499Z,100865.88
2023-05-11T17:13:48.794Z,100863.22
2023-05-11T17:18:51.563Z,100840.19
2023-05-11T17:23:53.808Z,100874.94
2023-05-11T17:28:56.125Z,100879.94
2023-05-11T17:33:58.571Z,100887.44
2023-05-11T17:39:01.718Z,100875.00
2023-05-11T17:44:04.830Z,100857.53
2023-05-11T17:49:08.545Z,100885.16
2023-05-11T17:54:11.623Z,100885.81
2023-05-11T17:59:13.883Z,100845.97
2023-05-11T18:04:16.280Z,100881.28
2023-05-11T18:09:19.990Z,100881.09
2023-05-11T18:14:22.259Z,100867.34
2023-05-11T18:19:24.539Z,100875.28
2023-05-11T18:24:27.416Z,100908.97
2023-05-11T18:29:29.826Z,100906.91
2023-05-11T18:34:32.208Z,100909.59
2023-05-11T18:39:34.493Z,100909.16
2023-05-11T18:44:36.749Z,100901.72
2023-05-11T18:49:39.547Z,100932.69
2023-05-11T18:54:42.083Z,100929.16
2023-05-11T18:59:45.368Z,100910.44
2023-05-11T19:04:47.549Z,100937.69
2023-05-11T19:09:49.845Z,100951.00
2023-05-11T19:14:55.844Z,100937.25
2023-05-11T19:19:58.132Z,100948.06
2023-05-11T19:25:01.389Z,100954.13
2023-05-11T19:30:04.941Z,100945.97
2023-05-11T19:35:07.384Z,100923.94
2023-05-11T19:40:37.406Z,100920.00
2023-05-11T19:45:33.567Z,100929.56
2023-05-11T19:50:35.935Z,100948.50
2023-05-11T19:55:40.197Z,100950.38
2023-05-11T20:00:43.217Z,100943.31
2023-05-11T20:05:45.941Z,100949.31
2023-05-11T20:10:48.553Z,100930.41
2023-05-11T20:15:51.131Z,100933.09
2023-05-11T20:20:53.381Z,100921.06
2023-05-11T20:25:55.554Z,100939.97
2023-05-11T20:30:57.773Z,100934.56
2023-05-11T20:36:00.644Z,100957.03
2023-05-11T20:41:02.825Z,100931.88
2023-05-11T20:46:05.938Z,100934.78
2023-05-11T20:51:08.225Z,100930.41
2023-05-11T20:56:13.040Z,100916.22
2023-05-11T21:01:15.538Z,100931.25
2023-05-11T21:06:17.999Z,100925.22
2023-05-11T21:11:20.296Z,100917.50
2023-05-11T21:16:22.812Z,100944.56
2023-05-11T21:21:25.652Z,100925.19
2023-05-11T21:26:27.875Z,100934.56
2023-05-11T21:31:30.192Z,100918.72
2023-05-11T21:36:32.566Z,100900.88
2023-05-11T21:41:34.810Z,100918.13
2023-05-11T21:46:37.088Z,100905.63
2023-05-11T21:51:39.491Z,100922.28
2023-05-11T21:56:42.222Z,100921.66
2023-05-11T22:01:45.133Z,100908.13
2023-05-11T22:06:47.308Z,100916.03
2023-05-11T22:11:49.574Z,100867.38
2023-05-11T22:16:52.489Z,100893.81
2023-05-11T22:21:54.684Z,100886.31
2023-05-11T22:26:56.871Z,100879.44
2023-05-11T22:31:59.145Z,100908.56
2023-05-11T22:37:01.984Z,100907.72
2023-05-11T22:42:04.329Z,100907.72
2023-05-11T22:47:06.836Z,100876.09
2023-05-11T22:52:09.048Z,100877.78
2023-05-11T22:57:13.937Z,100871.13
2023-05-11T23:02:16.179Z,100873.19
2023-05-11T23:07:19.290Z,100870.91
2023-05-11T23:12:21.748Z,100883.81
2023-05-11T23:17:24.110Z,100885.66
2023-05-11T23:22:26.487Z,100867.59
2023-05-11T23:27:29.059Z,100874.66
2023-05-11T23:32:31.530Z,100874.25
2023-05-11T23:37:33.975Z,100885.06
2023-05-11T23:42:36.293Z,100864.69
2023-05-11T23:47:38.625Z,100886.91
2023-05-11T23:52:40.972Z,100892.09
2023-05-11T23:57:44.159Z,100902.13
